Little Wind — 5IM938 — position and weather

sailwx.info

Track history (hours):
 
Tides and Currents Weather Stations Pressure Air Temp Water Temp Dewpoint Dewpoint Depression Visibility Wind Speed Wind Dir Waves Ship Positions

Little Wind

Last reported at 2018-Apr-14 23:32 UTC. Time now 2018-Apr-26 01:41 UTC.
Position N 45°32' E 036°46'.
Warning: this ship's position is 11 days out of date.

Length 113 m; draft 2.4 m.

Type: Cargo ship. MMSI: 677083800.

Date/timePositionNaut miles runAvg speedWind from/ knotsBaromVisibWave heightAir tempDewpointWater temp
2018-Apr-14 23:32N 45°32' E 036°46'0 6.9
2018-Apr-14 23:30N 45°32' E 036°46'3 6.8
2018-Apr-14 23:00N 45°29' E 036°43'4 7.1
2018-Apr-14 22:30N 45°26' E 036°42'4 7.2
2018-Apr-14 22:00N 45°22' E 036°40'3 6.1
2018-Apr-14 21:29N 45°20' E 036°37'3 6.8
2018-Apr-14 21:00N 45°19' E 036°33'5 3.3
2018-Apr-14 19:20N 45°14' E 036°30'1 2.8
2018-Apr-14 18:58N 45°13' E 036°31'0 0.0
2018-Apr-14 18:28N 45°13' E 036°31'0 0.0
2018-Apr-14 17:58N 45°13' E 036°31'0 0.0
2018-Apr-14 16:25N 45°13' E 036°31'0 0.0
2018-Apr-14 15:58N 45°13' E 036°31'0 0.0
2018-Apr-14 15:28N 45°13' E 036°31'0 0.0
2018-Apr-14 14:59N 45°13' E 036°31'0 0.3
2018-Apr-14 14:31N 45°13' E 036°30'2 4.7
2018-Apr-14 14:00N 45°11' E 036°29'5 6.5
2018-Apr-14 13:15N 45°06' E 036°30'2 6.6
2018-Apr-14 13:00N 45°04' E 036°30'  
2018-Apr-10 15:19N 40°52' E 029°11'0 0.0
2018-Apr-10 14:49N 40°52' E 029°11'0 0.0
2018-Apr-10 13:55N 40°52' E 029°11'0 0.0
2018-Apr-10 13:13N 40°52' E 029°11'0 0.0
2018-Apr-10 12:55N 40°52' E 029°11'0 0.0
2018-Apr-10 12:25N 40°52' E 029°11'0 0.0
2018-Apr-10 11:49N 40°52' E 029°11'0 0.1
2018-Apr-10 11:25N 40°52' E 029°11'0 0.0
2018-Apr-10 10:55N 40°52' E 029°11'0 0.0
2018-Apr-10 10:25N 40°52' E 029°11'0 0.1
2018-Apr-10 09:55N 40°52' E 029°11'0 0.0
2018-Apr-10 08:31N 40°52' E 029°11'0 0.0
2018-Apr-10 07:37N 40°52' E 029°11'0 0.1
2018-Apr-10 07:25N 40°52' E 029°11'0 0.0
2018-Apr-10 06:55N 40°52' E 029°11'0 0.0
2018-Apr-10 06:07N 40°52' E 029°11'0 0.0
2018-Apr-10 05:49N 40°52' E 029°11'0 0.0
2018-Apr-10 05:19N 40°52' E 029°11'0 0.0
2018-Apr-10 04:49N 40°52' E 029°11'0 0.0
2018-Apr-10 03:49N 40°52' E 029°11'0 0.0
2018-Apr-10 03:25N 40°52' E 029°11'0 0.1
2018-Apr-10 02:55N 40°52' E 029°11'0 0.3
2018-Apr-10 02:25N 40°52' E 029°11'  
Track history (hours):
 
Tides and Currents Weather Stations Pressure Air Temp Water Temp Dewpoint Dewpoint Depression Visibility Wind Speed Wind Dir Waves Ship Positions

Little Wind

Last reported at 2018-Apr-14 23:32 UTC. Time now 2018-Apr-26 01:41 UTC.
Position N 45°32' E 036°46'.
Warning: this ship's position is 11 days out of date.

Length 113 m; draft 2.4 m.

Type: Cargo ship. MMSI: 677083800.

Date/timePositionNaut miles runAvg speedWind from/ knotsBaromVisibWave heightAir tempDewpointWater temp
2018-Apr-14 23:32N 45°32' E 036°46'0 6.9
2018-Apr-14 23:30N 45°32' E 036°46'3 6.8
2018-Apr-14 23:00N 45°29' E 036°43'4 7.1
2018-Apr-14 22:30N 45°26' E 036°42'4 7.2
2018-Apr-14 22:00N 45°22' E 036°40'3 6.1
2018-Apr-14 21:29N 45°20' E 036°37'3 6.8
2018-Apr-14 21:00N 45°19' E 036°33'5 3.3
2018-Apr-14 19:20N 45°14' E 036°30'1 2.8
2018-Apr-14 18:58N 45°13' E 036°31'0 0.0
2018-Apr-14 18:28N 45°13' E 036°31'0 0.0
2018-Apr-14 17:58N 45°13' E 036°31'0 0.0
2018-Apr-14 16:25N 45°13' E 036°31'0 0.0
2018-Apr-14 15:58N 45°13' E 036°31'0 0.0
2018-Apr-14 15:28N 45°13' E 036°31'0 0.0
2018-Apr-14 14:59N 45°13' E 036°31'0 0.3
2018-Apr-14 14:31N 45°13' E 036°30'2 4.7
2018-Apr-14 14:00N 45°11' E 036°29'5 6.5
2018-Apr-14 13:15N 45°06' E 036°30'2 6.6
2018-Apr-14 13:00N 45°04' E 036°30'  
2018-Apr-10 15:19N 40°52' E 029°11'0 0.0
2018-Apr-10 14:49N 40°52' E 029°11'0 0.0
2018-Apr-10 13:55N 40°52' E 029°11'0 0.0
2018-Apr-10 13:13N 40°52' E 029°11'0 0.0
2018-Apr-10 12:55N 40°52' E 029°11'0 0.0
2018-Apr-10 12:25N 40°52' E 029°11'0 0.0
2018-Apr-10 11:49N 40°52' E 029°11'0 0.1
2018-Apr-10 11:25N 40°52' E 029°11'0 0.0
2018-Apr-10 10:55N 40°52' E 029°11'0 0.0
2018-Apr-10 10:25N 40°52' E 029°11'0 0.1
2018-Apr-10 09:55N 40°52' E 029°11'0 0.0
2018-Apr-10 08:31N 40°52' E 029°11'0 0.0
2018-Apr-10 07:37N 40°52' E 029°11'0 0.1
2018-Apr-10 07:25N 40°52' E 029°11'0 0.0
2018-Apr-10 06:55N 40°52' E 029°11'0 0.0
2018-Apr-10 06:07N 40°52' E 029°11'0 0.0
2018-Apr-10 05:49N 40°52' E 029°11'0 0.0
2018-Apr-10 05:19N 40°52' E 029°11'0 0.0
2018-Apr-10 04:49N 40°52' E 029°11'0 0.0
2018-Apr-10 03:49N 40°52' E 029°11'0 0.0
2018-Apr-10 03:25N 40°52' E 029°11'0 0.1
2018-Apr-10 02:55N 40°52' E 029°11'0 0.3
2018-Apr-10 02:25N 40°52' E 029°11'  

Dump ship's entire track history